Time;durP1;ratioP1;P1;durP2;ratioP2;P2;SDS_P1;SDS_P2;PMS_P1;PMS_P2;Temp;Humidity;BMP_temperature;BMP_pressure;BME280_temperature;BME280_humidity;BME280_pressure;Samples;Min_cycle;Max_cycle;Signal;HPM_P1;HPM_P2
2023/04/11 00:02:18;;;;;;;8.30;7.70;;;;;;;9.86;100.00;100468.00;5034344;28;20798;-52
2023/04/11 00:04:46;;;;;;;8.43;7.83;;;;;;;9.88;100.00;100465.97;5034348;28;20442;-47
2023/04/11 00:07:15;;;;;;;8.87;8.27;;;;;;;9.85;100.00;100466.38;5034273;28;20455;-48
2023/04/11 00:09:43;;;;;;;8.00;7.50;;;;;;;9.83;100.00;100462.25;5033642;28;20470;-47
2023/04/11 00:12:11;;;;;;;7.70;7.10;;;;;;;9.82;100.00;100449.97;5034060;28;20428;-48
2023/04/11 00:14:44;;;;;;;7.90;7.37;;;;;;;9.80;100.00;100444.81;5034256;28;20443;-48
2023/04/11 00:17:12;;;;;;;9.67;9.07;;;;;;;9.78;100.00;100443.38;5033944;28;20471;-48
2023/04/11 00:19:42;;;;;;;8.30;7.70;;;;;;;9.78;100.00;100438.06;5033527;28;20460;-45
2023/04/11 00:22:10;;;;;;;8.90;8.30;;;;;;;9.78;100.00;100436.22;5033748;28;21064;-47
2023/04/11 00:24:39;;;;;;;8.23;7.73;;;;;;;9.76;100.00;100442.75;5033389;28;20851;-46
2023/04/11 00:27:06;;;;;;;7.87;7.47;;;;;;;9.76;100.00;100440.94;5034094;28;20490;-50
2023/04/11 00:29:35;;;;;;;8.73;8.20;;;;;;;9.74;100.00;100450.09;5033727;28;20460;-49
2023/04/11 00:32:03;;;;;;;8.30;7.83;;;;;;;9.77;100.00;100452.38;5033594;28;20428;-47
2023/04/11 00:34:33;;;;;;;8.43;7.97;;;;;;;9.78;100.00;100457.53;5033842;28;20436;-49
2023/04/11 00:37:01;;;;;;;8.43;7.87;;;;;;;9.81;100.00;100450.97;5033670;28;20452;-46
2023/04/11 00:39:32;;;;;;;8.63;8.13;;;;;;;9.79;100.00;100448.53;5033528;28;20484;-49
2023/04/11 00:42:06;;;;;;;8.47;7.87;;;;;;;9.77;100.00;100436.41;5033636;28;20482;-47
2023/04/11 00:44:35;;;;;;;9.90;9.10;;;;;;;9.76;100.00;100437.44;5033963;28;20432;-48
2023/04/11 00:47:05;;;;;;;9.40;8.80;;;;;;;9.72;100.00;100447.66;5034216;28;20544;-45
2023/04/11 00:49:33;;;;;;;8.20;7.60;;;;;;;9.69;100.00;100433.91;5033729;28;20464;-45
2023/04/11 00:52:00;;;;;;;8.50;7.90;;;;;;;9.68;100.00;100438.41;5033955;28;20456;-46
2023/04/11 00:54:29;;;;;;;9.30;8.47;;;;;;;9.66;100.00;100429.81;5034061;28;20436;-47
2023/04/11 00:56:59;;;;;;;8.47;7.90;;;;;;;9.63;100.00;100437.38;5034036;28;20452;-46
2023/04/11 00:59:29;;;;;;;9.80;9.00;;;;;;;9.64;100.00;100441.69;5033617;28;20486;-46
2023/04/11 01:01:58;;;;;;;9.03;8.47;;;;;;;9.62;100.00;100431.22;5034147;28;20463;-46
2023/04/11 01:04:28;;;;;;;9.73;9.13;;;;;;;9.65;100.00;100422.84;5034144;28;20527;-47
2023/04/11 01:07:00;;;;;;;9.90;9.30;;;;;;;9.64;100.00;100412.41;5034178;28;20456;-50
2023/04/11 01:09:28;;;;;;;9.73;9.03;;;;;;;9.63;100.00;100389.44;5033951;28;20470;-45
2023/04/11 01:11:56;;;;;;;11.10;10.30;;;;;;;9.61;100.00;100396.81;5034089;28;20428;-50
2023/04/11 01:14:25;;;;;;;10.50;9.77;;;;;;;9.54;100.00;100390.63;5034217;28;20482;-47
2023/04/11 01:16:56;;;;;;;10.37;9.47;;;;;;;9.51;100.00;100391.84;5033588;28;20542;-52
2023/04/11 01:19:25;;;;;;;11.33;10.53;;;;;;;9.47;100.00;100389.81;5033493;28;20515;-47
2023/04/11 01:21:55;;;;;;;11.13;10.33;;;;;;;9.45;100.00;100392.66;5033690;28;20993;-49
2023/04/11 01:24:25;;;;;;;11.10;10.23;;;;;;;9.48;100.00;100391.44;5034041;28;20440;-50
2023/04/11 01:26:52;;;;;;;10.77;10.03;;;;;;;9.45;100.00;100390.81;5033787;28;20456;-51
2023/04/11 01:29:20;;;;;;;10.00;9.40;;;;;;;9.45;100.00;100397.97;5033512;28;20455;-50
2023/04/11 01:31:50;;;;;;;11.30;10.60;;;;;;;9.44;100.00;100389.16;5034006;28;20428;-49
2023/04/11 01:34:19;;;;;;;11.33;10.53;;;;;;;9.40;100.00;100387.94;5034129;28;20432;-48
2023/04/11 01:36:47;;;;;;;20.07;11.63;;;;;;;9.39;100.00;100388.94;5034364;28;20451;-50
2023/04/11 01:39:15;;;;;;;11.20;10.57;;;;;;;9.39;100.00;100382.78;5033998;28;20930;-49
2023/04/11 01:41:46;;;;;;;11.40;10.60;;;;;;;9.39;100.00;100382.78;5034078;28;20483;-47
2023/04/11 01:44:14;;;;;;;11.10;10.40;;;;;;;9.38;100.00;100375.81;5033957;28;20471;-46
2023/04/11 01:46:43;;;;;;;11.20;10.40;;;;;;;9.37;100.00;100383.00;5033812;28;20525;-47
2023/04/11 01:49:15;;;;;;;12.90;11.77;;;;;;;9.37;100.00;100382.19;5032521;28;20428;-51
2023/04/11 01:51:42;;;;;;;11.03;10.33;;;;;;;9.38;100.00;100383.78;5033307;28;20428;-49
2023/04/11 01:54:10;;;;;;;11.57;10.80;;;;;;;9.42;100.00;100388.53;5033886;28;20440;-48
2023/04/11 01:56:38;;;;;;;12.13;11.27;;;;;;;9.42;100.00;100379.72;5033193;28;20476;-46
2023/04/11 01:59:07;;;;;;;12.10;11.00;;;;;;;9.40;100.00;100369.31;5032783;28;20444;-47
2023/04/11 02:01:34;;;;;;;13.70;11.37;;;;;;;9.43;100.00;100368.91;5030527;28;20490;-47
2023/04/11 02:04:02;;;;;;;11.70;11.00;;;;;;;9.45;100.00;100376.69;5033434;28;20428;-46
2023/04/11 02:06:30;;;;;;;11.83;11.03;;;;;;;9.44;100.00;100367.03;5032876;28;20551;-49
2023/04/11 02:08:58;;;;;;;12.17;11.27;;;;;;;9.47;100.00;100369.31;5033095;28;20432;-45
2023/04/11 02:11:26;;;;;;;11.80;10.90;;;;;;;9.48;100.00;100364.81;5032958;28;20464;-48
2023/04/11 02:13:53;;;;;;;12.60;11.63;;;;;;;9.47;100.00;100355.19;5032872;28;20845;-47
2023/04/11 02:16:24;;;;;;;13.93;13.00;;;;;;;9.47;100.00;100358.66;5033224;28;20464;-47
2023/04/11 02:18:52;;;;;;;13.90;12.70;;;;;;;9.47;100.00;100347.22;5033136;28;20467;-45
2023/04/11 02:21:21;;;;;;;13.50;12.60;;;;;;;9.44;100.00;100340.44;5032393;28;20468;-50
2023/04/11 02:23:48;;;;;;;15.90;14.70;;;;;;;9.43;100.00;100336.97;5032930;28;20785;-45
2023/04/11 02:26:16;;;;;;;15.43;14.23;;;;;;;9.41;100.00;100343.47;5032694;28;20462;-49
2023/04/11 02:28:44;;;;;;;14.47;13.27;;;;;;;9.40;100.00;100342.69;5032761;28;20450;-45
2023/04/11 02:31:11;;;;;;;15.93;14.73;;;;;;;9.41;100.00;100340.81;5031604;28;20561;-50
2023/04/11 02:33:40;;;;;;;15.23;14.17;;;;;;;9.43;100.00;100346.78;5032359;28;20435;-47
2023/04/11 02:36:08;;;;;;;15.70;14.20;;;;;;;9.42;100.00;100339.81;5032226;28;20468;-48
2023/04/11 02:38:36;;;;;;;15.47;14.47;;;;;;;9.43;100.00;100344.13;5031901;28;20852;-46
2023/04/11 02:41:04;;;;;;;16.53;15.13;;;;;;;9.40;100.00;100329.38;5031533;28;20842;-47
2023/04/11 02:43:32;;;;;;;15.30;14.10;;;;;;;9.36;100.00;100325.47;5031569;28;20498;-46
2023/04/11 02:46:00;;;;;;;17.30;15.80;;;;;;;9.33;100.00;100328.53;5032172;28;20456;-46
2023/04/11 02:48:40;;;;;;;15.93;14.63;;;;;;;9.30;100.00;100320.09;5034301;28;20436;-46
2023/04/11 02:51:07;;;;;;;15.00;13.90;;;;;;;9.30;100.00;100328.09;5035648;28;20544;-47
2023/04/11 02:53:35;;;;;;;17.73;16.20;;;;;;;9.28;100.00;100332.81;5035629;28;20435;-48
2023/04/11 02:56:04;;;;;;;17.30;15.60;;;;;;;9.29;100.00;100329.09;5035840;28;20454;-45
2023/04/11 02:58:32;;;;;;;17.60;16.20;;;;;;;9.30;100.00;100331.56;5035697;28;20439;-47
2023/04/11 03:00:59;;;;;;;17.40;16.03;;;;;;;9.31;100.00;100332.41;5035228;28;20574;-46
2023/04/11 03:03:27;;;;;;;17.47;16.10;;;;;;;9.33;100.00;100331.19;5035295;28;20471;-47
2023/04/11 03:05:57;;;;;;;19.10;17.10;;;;;;;9.34;100.00;100330.19;5035319;28;20455;-47
2023/04/11 03:08:24;;;;;;;16.43;15.10;;;;;;;9.37;100.00;100328.94;5035316;28;20435;-48
2023/04/11 03:10:52;;;;;;;17.70;16.10;;;;;;;9.36;100.00;100325.47;5035149;28;20539;-47
2023/04/11 03:13:20;;;;;;;17.40;16.10;;;;;;;9.36;100.00;100336.09;5035795;28;20432;-46
2023/04/11 03:15:47;;;;;;;18.10;16.63;;;;;;;9.34;100.00;100332.00;5036073;28;20965;-47
2023/04/11 03:18:16;;;;;;;15.77;14.23;;;;;;;9.28;100.00;100322.16;5036160;28;20421;-45
2023/04/11 03:20:44;;;;;;;14.83;13.40;;;;;;;9.20;100.00;100299.19;5031933;28;20460;-48
2023/04/11 03:23:13;;;;;;;14.73;13.53;;;;;;;9.22;100.00;100302.50;5035676;28;20513;-45
2023/04/11 03:25:43;;;;;;;15.67;13.60;;;;;;;9.25;100.00;100301.28;5035613;28;20420;-50
2023/04/11 03:28:11;;;;;;;15.70;14.40;;;;;;;9.25;100.00;100298.59;5035883;28;21015;-50
2023/04/11 03:30:41;;;;;;;13.80;12.80;;;;;;;9.26;100.00;100293.06;5035322;28;20962;-47
2023/04/11 03:33:09;;;;;;;12.57;11.47;;;;;;;9.25;100.00;100279.97;5030551;28;20467;-46
2023/04/11 03:35:37;;;;;;;14.53;13.07;;;;;;;9.22;100.00;100281.22;5035525;28;20432;-45
2023/04/11 03:38:05;;;;;;;13.23;11.93;;;;;;;9.19;100.00;100284.25;5035139;28;20436;-47
2023/04/11 03:40:34;;;;;;;12.00;11.20;;;;;;;9.18;100.00;100311.88;5035550;28;20489;-45
2023/04/11 03:43:02;;;;;;;13.50;12.07;;;;;;;9.12;100.00;100317.16;5034956;28;20997;-45
2023/04/11 03:45:31;;;;;;;14.37;13.03;;;;;;;9.00;100.00;100308.09;5035041;28;21009;-47
2023/04/11 03:47:59;;;;;;;14.37;12.70;;;;;;;8.97;100.00;100304.00;5035358;28;20452;-49
2023/04/11 03:50:27;;;;;;;15.00;13.57;;;;;;;9.00;100.00;100322.22;5035537;28;20525;-48
2023/04/11 03:52:55;;;;;;;11.87;10.97;;;;;;;8.79;100.00;100325.78;5027788;28;20467;-45
2023/04/11 03:55:24;;;;;;;13.23;12.13;;;;;;;8.71;100.00;100333.91;5035034;28;20437;-50
2023/04/11 03:57:53;;;;;;;11.27;10.37;;;;;;;8.59;100.00;100351.41;5034740;28;20523;-47
2023/04/11 04:00:21;;;;;;;12.23;9.10;;;;;;;8.44;100.00;100355.16;5034316;28;20436;-50
2023/04/11 04:02:49;;;;;;;10.40;9.70;;;;;;;8.33;100.00;100365.28;5030086;28;20514;-45
2023/04/11 04:05:17;;;;;;;10.40;9.60;;;;;;;8.26;100.00;100361.72;5035334;28;20825;-50
2023/04/11 04:07:44;;;;;;;11.13;9.93;;;;;;;8.21;100.00;100350.03;5035833;28;20558;-47
2023/04/11 04:10:12;;;;;;;10.37;9.60;;;;;;;8.22;100.00;100356.97;5035507;28;20937;-45
2023/04/11 04:12:40;;;;;;;11.97;11.13;;;;;;;8.19;100.00;100373.28;5034610;28;20452;-46
2023/04/11 04:15:13;;;;;;;10.70;10.10;;;;;;;8.14;100.00;100376.53;5035452;28;20440;-47
2023/04/11 04:17:41;;;;;;;10.30;9.40;;;;;;;8.16;100.00;100373.66;5035646;28;20474;-47
2023/04/11 04:20:10;;;;;;;11.90;10.73;;;;;;;8.17;100.00;100365.53;5035396;28;20941;-45
2023/04/11 04:22:37;;;;;;;10.70;9.90;;;;;;;8.19;100.00;100362.66;5034540;28;20483;-45
2023/04/11 04:25:08;;;;;;;12.83;10.63;;;;;;;8.16;100.00;100357.72;5034900;28;20432;-45
2023/04/11 04:27:36;;;;;;;10.10;9.33;;;;;;;8.17;100.00;100349.59;5034933;28;20988;-46
2023/04/11 04:30:04;;;;;;;11.03;10.10;;;;;;;8.14;100.00;100355.28;5034808;28;20428;-50
2023/04/11 04:32:33;;;;;;;10.67;9.87;;;;;;;8.12;100.00;100353.84;5031893;28;20546;-46
2023/04/11 04:35:01;;;;;;;10.20;9.33;;;;;;;8.11;100.00;100352.19;5034571;28;20439;-46
2023/04/11 04:37:28;;;;;;;9.67;9.00;;;;;;;8.07;100.00;100356.22;5034585;28;20506;-46
2023/04/11 04:40:06;;;;;;;10.67;9.60;;;;;;;8.00;100.00;100361.50;5034209;28;20535;-46
2023/04/11 04:42:35;;;;;;;9.67;9.03;;;;;;;7.99;100.00;100373.09;5033587;28;20992;-46
2023/04/11 04:45:03;;;;;;;10.80;9.43;;;;;;;8.01;100.00;100375.56;5034459;28;20918;-48
2023/04/11 04:47:35;;;;;;;10.07;8.93;;;;;;;7.98;100.00;100374.09;5034434;28;20817;-45
2023/04/11 04:50:03;;;;;;;10.30;9.50;;;;;;;7.98;100.00;100374.09;5034191;28;20434;-45
2023/04/11 04:52:31;;;;;;;10.20;9.50;;;;;;;7.99;100.00;100361.66;5033853;28;20460;-48
2023/04/11 04:54:59;;;;;;;10.67;9.87;;;;;;;8.02;100.00;100372.72;5034417;28;20428;-47
2023/04/11 04:57:30;;;;;;;10.83;10.03;;;;;;;8.02;100.00;100374.56;5033956;28;20459;-45
2023/04/11 04:59:58;;;;;;;10.63;9.90;;;;;;;8.04;100.00;100367.22;5034126;28;20425;-47
2023/04/11 05:02:26;;;;;;;11.17;10.37;;;;;;;8.08;100.00;100366.66;5029636;28;20463;-48
2023/04/11 05:04:55;;;;;;;12.07;10.90;;;;;;;8.08;100.00;100371.16;5033942;28;20953;-45
2023/04/11 05:07:23;;;;;;;10.50;10.10;;;;;;;8.09;100.00;100368.31;5033731;28;20634;-47
2023/04/11 05:09:51;;;;;;;10.70;10.10;;;;;;;8.11;100.00;100370.78;5034051;28;20436;-45
2023/04/11 05:12:20;;;;;;;11.37;10.67;;;;;;;8.15;100.00;100369.41;5032608;28;20953;-45
2023/04/11 05:14:48;;;;;;;10.27;9.60;;;;;;;8.18;100.00;100363.69;5034019;28;20462;-45
2023/04/11 05:17:15;;;;;;;10.63;9.60;;;;;;;8.13;100.00;100361.59;5033852;28;20901;-49
2023/04/11 05:19:43;;;;;;;10.97;10.03;;;;;;;8.13;100.00;100369.56;5033752;28;20982;-45
2023/04/11 05:22:12;;;;;;;10.73;9.77;;;;;;;8.11;100.00;100379.56;5033238;28;20841;-46
2023/04/11 05:24:40;;;;;;;10.30;9.33;;;;;;;8.12;100.00;100378.53;5033855;28;20475;-47
2023/04/11 05:27:07;;;;;;;10.07;9.03;;;;;;;8.10;100.00;100375.25;5033452;28;20456;-45
2023/04/11 05:29:35;;;;;;;10.37;9.77;;;;;;;8.11;100.00;100376.91;5033742;28;20429;-52
2023/04/11 05:32:03;;;;;;;10.37;9.67;;;;;;;8.14;100.00;100379.19;5033601;28;21055;-45
2023/04/11 05:34:31;;;;;;;11.17;10.57;;;;;;;8.15;100.00;100380.81;5025144;28;20490;-51
2023/04/11 05:37:00;;;;;;;17.33;10.20;;;;;;;8.17;100.00;100378.81;5033704;28;20819;-46
2023/04/11 05:39:29;;;;;;;9.30;8.80;;;;;;;8.19;100.00;100378.59;5034261;28;20440;-48
2023/04/11 05:41:56;;;;;;;11.40;10.57;;;;;;;8.24;100.00;100376.22;5032951;28;20447;-48
2023/04/11 05:44:24;;;;;;;10.57;9.93;;;;;;;8.19;100.00;100378.59;5032978;28;21148;-50
2023/04/11 05:46:52;;;;;;;11.53;10.53;;;;;;;8.21;100.00;100384.56;5033309;28;20555;-45
2023/04/11 05:49:20;;;;;;;10.90;10.30;;;;;;;8.24;100.00;100390.31;5033529;28;20463;-45
2023/04/11 05:51:47;;;;;;;11.40;10.40;;;;;;;8.24;100.00;100387.66;5033215;28;20428;-48
2023/04/11 05:54:33;;;;;;;12.87;11.90;;;;;;;8.29;100.00;100387.94;5032668;28;20531;-47
2023/04/11 05:57:02;;;;;;;10.90;10.30;;;;;;;8.30;100.00;100391.44;5032992;28;20443;-48
2023/04/11 05:59:30;;;;;;;11.30;10.23;;;;;;;8.33;100.00;100391.06;5033585;28;20446;-49
2023/04/11 06:01:58;;;;;;;11.00;10.03;;;;;;;8.34;100.00;100384.72;5033144;28;20439;-45
2023/04/11 06:04:26;;;;;;;11.50;10.73;;;;;;;8.32;100.00;100384.09;5029276;28;20542;-47
2023/04/11 06:06:56;;;;;;;13.93;12.73;;;;;;;8.33;100.00;100378.56;5033017;28;20973;-45
2023/04/11 06:09:24;;;;;;;12.00;11.10;;;;;;;8.41;100.00;100379.47;5033156;28;20440;-47
2023/04/11 06:11:53;;;;;;;12.03;10.80;;;;;;;8.44;100.00;100371.94;5032547;28;20949;-47
2023/04/11 06:14:20;;;;;;;11.80;11.00;;;;;;;8.51;100.00;100369.34;5032387;28;20464;-47
2023/04/11 06:16:48;;;;;;;11.03;10.20;;;;;;;8.55;100.00;100375.88;5032756;28;20475;-46
2023/04/11 06:19:17;;;;;;;14.10;11.17;;;;;;;8.60;100.00;100386.78;5032536;28;20447;-46
2023/04/11 06:21:45;;;;;;;12.33;11.10;;;;;;;8.60;100.00;100379.59;5032325;28;20858;-51
2023/04/11 06:24:12;;;;;;;11.67;10.70;;;;;;;8.61;100.00;100372.47;5024448;28;20470;-45
2023/04/11 06:26:40;;;;;;;18.60;11.20;;;;;;;8.67;100.00;100379.66;5032560;28;20452;-49
2023/04/11 06:29:09;;;;;;;25.23;11.70;;;;;;;8.64;100.00;100372.91;5032309;28;20805;-47
2023/04/11 06:31:37;;;;;;;12.80;11.57;;;;;;;8.66;100.00;100378.03;5032042;28;20432;-48
2023/04/11 06:34:04;;;;;;;14.50;11.83;;;;;;;8.63;100.00;100381.88;5024526;28;20454;-46
2023/04/11 06:36:32;;;;;;;14.87;12.10;;;;;;;8.68;100.00;100379.50;5032056;28;20484;-47
2023/04/11 06:39:00;;;;;;;11.93;10.80;;;;;;;8.72;100.00;100390.56;5032159;28;20439;-46
2023/04/11 06:41:28;;;;;;;13.80;11.57;;;;;;;8.75;100.00;100390.97;5031910;28;20519;-45
2023/04/11 06:43:55;;;;;;;15.07;12.60;;;;;;;8.87;100.00;100391.25;5032060;28;20476;-45
2023/04/11 06:46:25;;;;;;;14.77;12.40;;;;;;;8.88;100.00;100393.75;5031401;28;20483;-48
2023/04/11 06:48:52;;;;;;;14.13;12.90;;;;;;;8.92;100.00;100391.53;5032306;28;20432;-48
2023/04/11 06:51:20;;;;;;;14.70;13.40;;;;;;;8.97;100.00;100396.25;5032054;28;20831;-49
2023/04/11 06:53:47;;;;;;;16.67;12.63;;;;;;;9.01;100.00;100390.38;5031961;28;20432;-45
2023/04/11 06:56:15;;;;;;;21.67;12.97;;;;;;;9.04;100.00;100395.28;5023061;28;20472;-45
2023/04/11 06:58:43;;;;;;;14.67;13.37;;;;;;;9.02;100.00;100394.66;5032163;28;20440;-46
2023/04/11 07:01:11;;;;;;;20.43;13.90;;;;;;;8.93;100.00;100395.00;5031602;28;20518;-48
2023/04/11 07:03:40;;;;;;;19.53;13.03;;;;;;;8.97;100.00;100399.72;5031259;28;20436;-45
2023/04/11 07:06:09;;;;;;;14.77;13.43;;;;;;;8.96;100.00;100410.59;5023608;28;20468;-46
2023/04/11 07:08:37;;;;;;;19.57;13.90;;;;;;;8.91;100.00;100408.50;5031627;28;20440;-45
2023/04/11 07:11:05;;;;;;;17.73;14.77;;;;;;;8.88;100.00;100411.53;5031769;28;20944;-46
2023/04/11 07:13:33;;;;;;;14.53;13.40;;;;;;;8.91;100.00;100411.16;5031323;28;20432;-49
2023/04/11 07:16:00;;;;;;;15.47;14.20;;;;;;;8.93;100.00;100414.41;5022840;28;20981;-47
2023/04/11 07:18:28;;;;;;;16.10;14.70;;;;;;;8.95;100.00;100409.75;5031674;28;20428;-45
2023/04/11 07:20:57;;;;;;;16.53;14.00;;;;;;;8.86;100.00;100414.41;5031556;28;20432;-47
2023/04/11 07:23:25;;;;;;;12.67;11.37;;;;;;;8.91;100.00;100411.16;5031501;28;20436;-47
2023/04/11 07:25:54;;;;;;;17.93;13.00;;;;;;;9.02;100.00;100423.91;5030664;28;20482;-46
2023/04/11 07:28:22;;;;;;;13.33;12.23;;;;;;;9.05;100.00;100420.84;5031375;28;20432;-46
2023/04/11 07:30:50;;;;;;;15.17;12.43;;;;;;;9.14;100.00;100426.88;5030942;28;20940;-45
2023/04/11 07:33:18;;;;;;;14.50;12.40;;;;;;;9.24;100.00;100424.66;5030909;28;20478;-45
2023/04/11 07:35:46;;;;;;;13.87;12.67;;;;;;;9.38;100.00;100426.38;5034752;28;20439;-45
2023/04/11 07:38:28;;;;;;;14.87;13.30;;;;;;;9.41;100.00;100426.81;5034621;28;20995;-45
2023/04/11 07:40:57;;;;;;;16.53;13.13;;;;;;;9.55;100.00;100427.72;5034514;28;20805;-48
2023/04/11 07:43:25;;;;;;;15.13;13.07;;;;;;;9.66;100.00;100427.16;5034268;28;20442;-49
2023/04/11 07:45:54;;;;;;;18.70;12.77;;;;;;;9.89;100.00;100422.31;5031351;28;20527;-45
2023/04/11 07:48:22;;;;;;;14.57;13.07;;;;;;;10.16;100.00;100431.25;5034862;28;20443;-47
2023/04/11 07:50:49;;;;;;;18.80;13.20;;;;;;;10.31;100.00;100429.22;5034645;28;20990;-48
2023/04/11 07:53:18;;;;;;;17.20;14.67;;;;;;;10.36;100.00;100428.63;5034185;28;20436;-45
2023/04/11 07:55:46;;;;;;;15.40;14.20;;;;;;;10.23;100.00;100426.75;5034279;28;20429;-45
2023/04/11 07:58:14;;;;;;;18.03;14.40;;;;;;;10.12;100.00;100429.16;5033881;28;20471;-48
2023/04/11 08:00:41;;;;;;;15.63;14.03;;;;;;;10.07;100.00;100428.91;5034221;28;20432;-45
2023/04/11 08:03:11;;;;;;;16.20;14.47;;;;;;;10.03;100.00;100442.66;5033894;28;20534;-48
2023/04/11 08:05:40;;;;;;;19.83;14.80;;;;;;;10.17;100.00;100434.72;5034073;28;20467;-45
2023/04/11 08:08:07;;;;;;;16.20;14.70;;;;;;;10.41;100.00;100434.16;5033666;28;20475;-47
2023/04/11 08:10:36;;;;;;;16.17;14.97;;;;;;;10.58;100.00;100435.41;5034218;28;20435;-48
2023/04/11 08:13:04;;;;;;;17.77;14.13;;;;;;;10.71;100.00;100437.28;5033834;28;20444;-45
2023/04/11 08:15:33;;;;;;;14.63;13.53;;;;;;;11.01;100.00;100438.50;5033577;28;20428;-47
2023/04/11 08:18:01;;;;;;;14.67;13.53;;;;;;;11.55;100.00;100446.22;5031413;28;20452;-47
2023/04/11 08:20:29;;;;;;;16.03;14.57;;;;;;;11.99;100.00;100448.13;5033842;28;20539;-47
2023/04/11 08:22:57;;;;;;;14.73;13.60;;;;;;;12.36;100.00;100447.31;5033658;28;20444;-47
2023/04/11 08:25:25;;;;;;;20.23;14.20;;;;;;;12.42;100.00;100433.09;5034222;28;20471;-51
2023/04/11 08:27:54;;;;;;;14.90;14.00;;;;;;;12.30;100.00;100434.81;5028296;28;20526;-49
2023/04/11 08:30:22;;;;;;;14.60;13.40;;;;;;;12.14;100.00;100430.78;5033767;28;20436;-47
2023/04/11 08:32:50;;;;;;;14.13;13.23;;;;;;;11.98;100.00;100435.78;5033480;28;20458;-46
2023/04/11 08:35:17;;;;;;;14.63;13.33;;;;;;;11.89;100.00;100437.88;5033522;28;20428;-50
2023/04/11 08:37:45;;;;;;;15.07;13.83;;;;;;;11.68;100.00;100430.94;5032935;28;20881;-50
2023/04/11 08:40:13;;;;;;;14.73;13.50;;;;;;;11.34;100.00;100449.13;5033544;28;20439;-48
2023/04/11 08:42:40;;;;;;;14.80;13.40;;;;;;;11.23;100.00;100447.91;5033371;28;20861;-48
2023/04/11 08:45:11;;;;;;;14.40;13.13;;;;;;;10.97;100.00;100438.09;5032779;28;20472;-48
2023/04/11 08:47:38;;;;;;;14.23;13.00;;;;;;;10.93;100.00;100446.72;5022337;28;20877;-51
2023/04/11 08:50:08;;;;;;;15.17;13.90;;;;;;;10.81;100.00;100451.84;5033390;28;20535;-50
2023/04/11 08:52:38;;;;;;;14.23;13.10;;;;;;;10.68;100.00;100453.69;5033281;28;20416;-45
2023/04/11 08:55:06;;;;;;;13.33;12.07;;;;;;;10.50;100.00;100463.09;5033187;28;20432;-46
2023/04/11 08:57:37;;;;;;;15.03;12.43;;;;;;;10.37;100.00;100456.91;5032596;28;20498;-47
2023/04/11 09:00:13;;;;;;;13.57;12.53;;;;;;;10.32;100.00;100462.84;5033043;28;20436;-46
2023/04/11 09:02:59;;;;;;;13.53;12.50;;;;;;;10.32;100.00;100457.53;5033133;28;20442;-50
2023/04/11 09:05:29;;;;;;;12.40;11.50;;;;;;;10.40;100.00;100457.34;5033268;28;20482;-52
2023/04/11 09:07:57;;;;;;;12.00;11.40;;;;;;;10.57;100.00;100458.59;5032907;28;20896;-47
2023/04/11 09:10:26;;;;;;;13.50;12.80;;;;;;;11.10;100.00;100469.28;5033274;28;20433;-46
2023/04/11 09:12:55;;;;;;;15.80;14.70;;;;;;;11.75;100.00;100468.38;5033190;28;20463;-49
2023/04/11 09:15:24;;;;;;;15.13;13.80;;;;;;;12.00;100.00;100466.63;5033183;28;20802;-48
2023/04/11 09:17:52;;;;;;;16.03;14.67;;;;;;;12.23;100.00;100460.75;5033422;28;20930;-48
2023/04/11 09:20:24;;;;;;;15.83;14.60;;;;;;;12.38;100.00;100460.47;5027399;28;20858;-46
2023/04/11 09:22:53;;;;;;;16.07;14.87;;;;;;;12.39;100.00;100473.63;5032925;28;20428;-50
2023/04/11 09:25:22;;;;;;;19.70;15.50;;;;;;;12.23;100.00;100467.94;5032813;28;20471;-47
2023/04/11 09:28:06;;;;;;;18.03;14.50;;;;;;;11.97;100.00;100471.56;5032751;28;20452;-53
2023/04/11 09:30:34;;;;;;;15.50;14.17;;;;;;;11.68;100.00;100464.84;5032611;28;20806;-47
2023/04/11 09:33:18;;;;;;;16.17;14.50;;;;;;;11.49;100.00;100479.91;5032383;28;20934;-46
2023/04/11 09:35:48;;;;;;;13.30;12.13;;;;;;;11.36;100.00;100479.09;5032494;28;20432;-45
2023/04/11 09:38:28;;;;;;;12.97;11.67;;;;;;;11.22;100.00;100474.81;5031823;28;20464;-45
2023/04/11 09:40:56;;;;;;;12.00;11.40;;;;;;;11.14;100.00;100481.16;5032169;28;20427;-47
2023/04/11 09:43:24;;;;;;;13.87;12.73;;;;;;;11.10;100.00;100475.44;5032015;28;20440;-50
2023/04/11 09:46:08;;;;;;;14.27;13.30;;;;;;;11.08;100.00;100474.00;5032003;28;20483;-45
2023/04/11 09:48:37;;;;;;;13.53;12.57;;;;;;;11.26;100.00;100489.41;5024512;28;20464;-51
2023/04/11 09:51:17;;;;;;;12.63;12.07;;;;;;;11.42;100.00;100478.28;5032420;28;20451;-47
2023/04/11 09:54:02;;;;;;;13.17;12.13;;;;;;;11.57;100.00;100489.53;5032260;28;20490;-45
2023/04/11 09:56:32;;;;;;;12.93;11.87;;;;;;;11.44;100.00;100482.38;5031470;28;20821;-45
2023/04/11 09:59:02;;;;;;;14.70;13.50;;;;;;;11.24;100.00;100492.25;5030838;28;20472;-45
2023/04/11 10:01:30;;;;;;;13.17;12.27;;;;;;;10.91;100.00;100492.28;5031822;28;20440;-47
2023/04/11 10:03:59;;;;;;;11.50;10.90;;;;;;;10.70;100.00;100491.63;5031978;28;20478;-46
2023/04/11 10:06:32;;;;;;;11.43;10.83;;;;;;;10.37;100.00;100494.22;5031753;28;20472;-46
2023/04/11 10:09:08;;;;;;;11.50;10.80;;;;;;;10.29;100.00;100489.09;5031239;28;20587;-47
2023/04/11 10:11:36;;;;;;;12.37;11.67;;;;;;;10.19;100.00;100497.47;5031834;28;20428;-46
2023/04/11 10:14:04;;;;;;;11.67;10.90;;;;;;;10.16;100.00;100518.34;5031986;28;20526;-46
2023/04/11 10:16:33;;;;;;;12.57;11.47;;;;;;;9.93;100.00;100523.97;5031833;28;20874;-46
2023/04/11 10:19:23;;;;;;;11.43;10.43;;;;;;;9.78;100.00;100528.59;5028931;28;20499;-47
2023/04/11 10:21:52;;;;;;;12.63;11.47;;;;;;;9.69;100.00;100513.78;5031980;28;20437;-45
2023/04/11 10:24:21;;;;;;;12.20;11.07;;;;;;;9.55;100.00;100522.72;5032352;28;20783;-48
2023/04/11 10:26:50;;;;;;;11.53;10.63;;;;;;;9.52;100.00;100523.13;5031856;28;21044;-45
2023/04/11 10:29:46;;;;;;;11.47;10.50;;;;;;;9.48;100.00;100538.66;5031526;28;20464;-45
2023/04/11 10:32:20;;;;;;;11.97;10.97;;;;;;;9.58;100.00;100532.97;5031701;28;20902;-45
2023/04/11 10:35:30;;;;;;;12.93;12.13;;;;;;;9.76;100.00;100530.63;5032057;28;20447;-47
2023/04/11 10:38:00;;;;;;;17.73;12.37;;;;;;;9.89;100.00;100536.03;5032117;28;20467;-45
2023/04/11 10:40:27;;;;;;;14.63;13.20;;;;;;;9.87;100.00;100544.22;5031572;28;20494;-50
2023/04/11 10:42:56;;;;;;;14.50;13.20;;;;;;;9.77;100.00;100542.91;5031898;28;20486;-48
2023/04/11 10:45:25;;;;;;;15.40;12.53;;;;;;;9.63;100.00;100571.31;5032122;28;20428;-50
2023/04/11 10:48:11;;;;;;;13.83;12.47;;;;;;;8.99;100.00;100551.94;5031525;28;20563;-46
2023/04/11 10:50:41;;;;;;;15.83;12.73;;;;;;;8.95;100.00;100552.53;5021360;28;20554;-47
2023/04/11 10:53:37;;;;;;;14.37;12.93;;;;;;;8.96;100.00;100562.16;5031747;28;20435;-48
2023/04/11 10:56:05;;;;;;;14.10;13.00;;;;;;;8.93;100.00;100562.56;5032048;28;20802;-50
2023/04/11 10:58:38;;;;;;;21.77;13.43;;;;;;;8.91;100.00;100570.69;5031348;28;20456;-46
2023/04/11 11:01:16;;;;;;;13.83;12.43;;;;;;;9.06;100.00;100579.44;5031687;28;20518;-46
2023/04/11 11:04:04;;;;;;;14.50;13.03;;;;;;;9.28;100.00;100575.75;5031847;28;20428;-49
2023/04/11 11:06:34;;;;;;;20.43;12.67;;;;;;;9.53;100.00;100578.81;5031462;28;20511;-47
2023/04/11 11:09:22;;;;;;;19.43;13.73;;;;;;;9.93;100.00;100588.72;5032562;28;20470;-47
2023/04/11 11:12:05;;;;;;;14.83;13.17;;;;;;;10.10;100.00;100573.22;5034893;28;20953;-45
2023/04/11 11:14:33;;;;;;;14.10;13.00;;;;;;;10.37;100.00;100576.84;5035038;28;20436;-46
2023/04/11 11:17:01;;;;;;;14.07;12.77;;;;;;;10.54;100.00;100584.31;5034950;28;20833;-45
2023/04/11 11:19:30;;;;;;;19.43;14.53;;;;;;;10.79;100.00;100575.75;5025713;28;20470;-45
2023/04/11 11:22:02;;;;;;;14.67;13.20;;;;;;;11.05;100.00;100571.28;5035126;28;20432;-45